Time;durP1;ratioP1;P1;durP2;ratioP2;P2;SDS_P1;SDS_P2;PMS_P1;PMS_P2;Temp;Humidity;BMP_temperature;BMP_pressure;BME280_temperature;BME280_humidity;BME280_pressure;Samples;Min_cycle;Max_cycle;Signal;HPM_P1;HPM_P2
2022/10/02 00:02:15;;;;;;;2.10;0.68;;;11.30;99.90;;;;;;5063465;28;20065;-48
2022/10/02 00:05:00;;;;;;;;;;;11.30;99.90;;;;;;5061962;28;20048;-47
2022/10/02 00:07:41;;;;;;;1.27;0.70;;;11.30;99.90;;;;;;5068531;28;20011;-46
2022/10/02 00:10:27;;;;;;;0.98;0.70;;;11.20;99.90;;;;;;5050781;28;20524;-46
2022/10/02 00:12:59;;;;;;;0.60;0.60;;;11.10;99.90;;;;;;5069117;28;20079;-47
2022/10/02 00:15:28;;;;;;;2.13;0.75;;;11.10;99.90;;;;;;5069480;28;20075;-49
2022/10/02 00:18:00;;;;;;;5.78;0.90;;;11.10;99.90;;;;;;5057382;28;20067;-45
2022/10/02 00:20:52;;;;;;;1.25;0.60;;;11.10;99.90;;;;;;5062199;28;20079;-45
2022/10/02 00:23:36;;;;;;;1.33;0.65;;;11.10;99.90;;;;;;5069935;28;20095;-47
2022/10/02 00:26:38;;;;;;;1.42;0.70;;;11.10;99.90;;;;;;5069863;28;20591;-46
2022/10/02 00:29:31;;;;;;;1.05;0.57;;;11.10;99.90;;;;;;5069431;28;20041;-47
2022/10/02 00:32:48;;;;;;;2.20;0.60;;;11.20;99.90;;;;;;5070373;28;20033;-45
2022/10/02 00:35:43;;;;;;;2.17;0.90;;;11.20;99.90;;;;;;5064454;28;20115;-46
2022/10/02 00:38:32;;;;;;;2.00;1.00;;;11.20;99.90;;;;;;5067346;28;20036;-46
2022/10/02 00:41:01;;;;;;;1.13;0.80;;;11.20;99.90;;;;;;5053950;28;20072;-46
2022/10/02 00:44:16;;;;;;;1.75;0.98;;;11.20;99.90;;;;;;5056764;28;20072;-46
2022/10/02 00:47:03;;;;;;;1.15;0.77;;;11.20;99.90;;;;;;5059823;28;20087;-46
2022/10/02 00:49:59;;;;;;;1.00;0.77;;;11.30;99.90;;;;;;5073330;28;20497;-47
2022/10/02 00:52:59;;;;;;;1.80;1.20;;;11.30;99.90;;;;;;5074190;28;20554;-46
2022/10/02 00:55:50;;;;;;;1.58;1.00;;;11.30;99.90;;;;;;5064704;28;20048;-46
2022/10/02 00:58:45;;;;;;;1.27;1.17;;;11.30;99.90;;;;;;5073157;28;20075;-46
2022/10/02 01:01:17;;;;;;;3.30;1.08;;;11.30;99.90;;;;;;5070490;28;20579;-47
2022/10/02 01:03:53;;;;;;;1.52;1.40;;;11.30;99.90;;;;;;5052859;28;20049;-49
2022/10/02 01:06:23;;;;;;;2.90;1.42;;;11.20;99.90;;;;;;5073552;28;20548;-46
2022/10/02 01:08:53;;;;;;;2.53;1.67;;;11.20;99.90;;;;;;5065269;28;20069;-47
2022/10/02 01:11:25;;;;;;;2.70;1.90;;;11.20;99.90;;;;;;5065071;28;20032;-47
2022/10/02 01:13:52;;;;;;;1.60;1.50;;;11.30;99.90;;;;;;5067578;28;20119;-46
2022/10/02 01:16:19;;;;;;;1.98;1.65;;;11.30;99.90;;;;;;5064105;28;20040;-47
2022/10/02 01:18:46;;;;;;;1.90;1.30;;;11.30;99.90;;;;;;5046289;28;20413;-48
2022/10/02 01:21:17;;;;;;;4.28;1.40;;;11.30;99.90;;;;;;5065534;28;20577;-47
2022/10/02 01:23:53;;;;;;;3.25;1.35;;;11.30;99.90;;;;;;5073620;28;20103;-46
2022/10/02 01:26:20;;;;;;;1.42;1.13;;;11.30;99.90;;;;;;5074036;28;20072;-49
2022/10/02 01:28:48;;;;;;;2.08;1.42;;;11.30;99.90;;;;;;5072575;28;20044;-46
2022/10/02 01:31:16;;;;;;;1.42;1.20;;;11.30;99.90;;;;;;5073751;28;20082;-46
2022/10/02 01:33:44;;;;;;;1.52;1.10;;;11.30;99.90;;;;;;5072317;28;20555;-49
2022/10/02 01:36:12;;;;;;;1.73;1.38;;;11.40;99.90;;;;;;5071103;28;20405;-47
2022/10/02 01:38:40;;;;;;;5.05;1.63;;;11.30;99.90;;;;;;5073425;28;20119;-49
2022/10/02 01:41:10;;;;;;;1.52;1.33;;;11.30;99.90;;;;;;5073202;28;20554;-48
2022/10/02 01:43:52;;;;;;;1.73;1.55;;;11.30;99.90;;;;;;5073244;28;20447;-48
2022/10/02 01:46:25;;;;;;;1.65;1.33;;;11.30;99.90;;;;;;5064744;28;20041;-49
2022/10/02 01:49:16;;;;;;;4.10;1.58;;;11.30;99.90;;;;;;5073482;28;20083;-48
2022/10/02 01:52:07;;;;;;;2.80;1.15;;;11.30;99.90;;;;;;5072019;28;20119;-48
2022/10/02 01:55:00;;;;;;;2.28;1.50;;;11.30;99.90;;;;;;5073035;28;20048;-48
2022/10/02 01:57:55;;;;;;;1.30;1.10;;;11.30;99.90;;;;;;5073163;28;20119;-47
2022/10/02 02:00:24;;;;;;;2.28;1.10;;;11.30;99.90;;;;;;5060657;28;20110;-48
2022/10/02 02:03:20;;;;;;;2.45;1.30;;;11.30;99.90;;;;;;5073113;28;20079;-47
2022/10/02 02:05:54;;;;;;;2.70;1.00;;;11.30;99.90;;;;;;5072817;28;20067;-47
2022/10/02 02:08:33;;;;;;;3.10;0.98;;;11.30;99.90;;;;;;5071810;28;20064;-48
2022/10/02 02:11:41;;;;;;;2.75;1.02;;;11.30;99.90;;;;;;5077504;22;20135;-50
2022/10/02 02:14:37;;;;;;;1.80;1.10;;;11.40;99.90;;;;;;5048257;28;20481;-46
2022/10/02 02:17:13;;;;;;;3.53;1.00;;;11.30;99.90;;;;;;5052929;28;20084;-48
2022/10/02 02:20:00;;;;;;;1.25;1.05;;;11.30;99.90;;;;;;5070266;28;20059;-50
2022/10/02 02:22:32;;;;;;;1.60;1.23;;;11.40;99.90;;;;;;5068384;28;20064;-49
2022/10/02 02:25:15;;;;;;;1.70;1.10;;;11.30;99.90;;;;;;5064409;28;20048;-48
2022/10/02 02:27:47;;;;;;;1.80;1.10;;;11.30;99.90;;;;;;5063800;28;20077;-50
2022/10/02 02:30:15;;;;;;;1.30;1.20;;;11.30;99.90;;;;;;5092802;28;20044;-48
2022/10/02 02:32:46;;;;;;;2.83;1.30;;;11.30;99.90;;;;;;5080403;28;20068;-49
2022/10/02 02:35:34;;;;;;;3.75;1.33;;;11.30;99.90;;;;;;5080651;28;20087;-46
2022/10/02 02:38:20;;;;;;;1.40;1.30;;;11.30;99.90;;;;;;5078277;28;20044;-48
2022/10/02 02:40:48;;;;;;;1.30;1.10;;;11.20;99.90;;;;;;5092292;28;20570;-51
2022/10/02 02:43:22;;;;;;;1.40;1.20;;;11.20;99.90;;;;;;5085861;28;20460;-49
2022/10/02 02:45:56;;;;;;;1.98;1.10;;;11.20;99.90;;;;;;5071012;28;20037;-49
2022/10/02 02:48:33;;;;;;;1.85;1.00;;;11.20;99.90;;;;;;5085242;28;20408;-48
2022/10/02 02:51:18;;;;;;;3.58;1.33;;;11.70;99.90;;;;;;5091188;28;20067;-48
2022/10/02 02:53:56;;;;;;;2.85;1.40;;;11.20;99.90;;;;;;5090924;28;20091;-48
2022/10/02 02:56:26;;;;;;;1.75;1.30;;;11.20;99.90;;;;;;5090973;28;20071;-50
2022/10/02 02:58:59;;;;;;;1.27;1.17;;;11.20;99.90;;;;;;5081745;28;20101;-49
2022/10/02 03:01:26;;;;;;;1.98;1.60;;;11.20;99.90;;;;;;5090965;28;20044;-48
2022/10/02 03:03:53;;;;;;;1.83;1.20;;;11.20;99.90;;;;;;5083919;28;20143;-48
2022/10/02 03:06:32;;;;;;;1.30;1.20;;;11.20;99.90;;;;;;5089035;28;20075;-50
2022/10/02 03:09:00;;;;;;;2.03;0.90;;;11.20;99.90;;;;;;5090991;28;20048;-47
2022/10/02 03:12:01;;;;;;;1.05;0.82;;;11.20;99.90;;;;;;5092131;28;20036;-50
2022/10/02 03:14:56;;;;;;;4.03;1.05;;;11.20;99.90;;;;;;5084902;28;20036;-47
2022/10/02 03:17:44;;;;;;;4.43;1.20;;;11.30;99.90;;;;;;5091860;28;20068;-51
2022/10/02 03:20:29;;;;;;;1.02;1.00;;;11.20;99.90;;;;;;5092202;28;20067;-51
2022/10/02 03:23:23;;;;;;;2.90;1.30;;;11.30;99.90;;;;;;5083300;28;20548;-47
2022/10/02 03:26:03;;;;;;;0.75;0.70;;;11.20;99.90;;;;;;5091479;28;20040;-48
2022/10/02 03:28:50;;;;;;;1.20;0.98;;;11.20;99.90;;;;;;5082889;28;20504;-47
2022/10/02 03:31:24;;;;;;;1.10;0.95;;;11.20;99.90;;;;;;5091448;28;20050;-51
2022/10/02 03:33:52;;;;;;;3.00;1.17;;;11.20;99.90;;;;;;5090689;28;20400;-49
2022/10/02 03:36:21;;;;;;;1.08;0.75;;;11.20;99.90;;;;;;5077907;28;20076;-49
2022/10/02 03:38:48;;;;;;;1.83;1.27;;;11.20;99.90;;;;;;5079368;28;20440;-48
2022/10/02 03:41:32;;;;;;;1.40;0.88;;;11.20;99.90;;;;;;5090865;28;20036;-50
2022/10/02 03:43:58;;;;;;;3.28;0.90;;;11.20;99.90;;;;;;5078296;28;20065;-50
2022/10/02 03:46:25;;;;;;;1.27;0.98;;;11.20;99.90;;;;;;5089899;28;20044;-51
2022/10/02 03:48:55;;;;;;;5.22;1.63;;;11.20;99.90;;;;;;5090764;28;20324;-47
2022/10/02 03:51:23;;;;;;;1.25;1.00;;;11.20;99.90;;;;;;5090100;28;20090;-47
2022/10/02 03:53:51;;;;;;;1.67;1.10;;;11.10;99.90;;;;;;5058281;28;20460;-48
2022/10/02 03:56:53;;;;;;;1.80;1.02;;;11.10;99.90;;;;;;5087404;28;20178;-48
2022/10/02 03:59:42;;;;;;;2.50;1.10;;;11.20;99.90;;;;;;5091375;28;20102;-51
2022/10/02 04:02:29;;;;;;;1.30;1.00;;;11.20;99.90;;;;;;5090752;28;20404;-48
2022/10/02 04:05:32;;;;;;;1.63;0.88;;;11.20;99.90;;;;;;5081467;28;20047;-47
2022/10/02 04:08:07;;;;;;;1.27;0.73;;;11.20;99.90;;;;;;5079178;28;20084;-49
2022/10/02 04:10:35;;;;;;;1.02;0.77;;;11.10;99.90;;;;;;5075314;28;20063;-48
2022/10/02 04:13:10;;;;;;;2.30;0.98;;;11.20;99.90;;;;;;5090445;28;20063;-47
2022/10/02 04:16:00;;;;;;;1.98;0.80;;;11.20;99.90;;;;;;5091170;28;20067;-50
2022/10/02 04:18:57;;;;;;;1.33;1.10;;;11.20;99.90;;;;;;5068053;28;20404;-48
2022/10/02 04:21:56;;;;;;;1.25;1.10;;;11.20;99.90;;;;;;5071515;28;20072;-48
2022/10/02 04:24:43;;;;;;;;;;;11.20;99.90;;;;;;5066769;28;20076;-51
2022/10/02 04:27:20;;;;;;;5.25;1.05;;;11.10;99.90;;;;;;5063602;28;19920;-49
2022/10/02 04:29:53;;;;;;;1.00;0.90;;;11.10;99.90;;;;;;5056621;28;20076;-51
2022/10/02 04:32:32;;;;;;;1.92;1.15;;;11.10;99.90;;;;;;5051597;28;20080;-52
2022/10/02 04:34:59;;;;;;;1.80;1.10;;;11.10;99.90;;;;;;5068342;28;20063;-47
2022/10/02 04:37:55;;;;;;;1.50;0.90;;;11.10;99.90;;;;;;5090624;28;20044;-49
2022/10/02 04:40:27;;;;;;;1.15;0.82;;;11.10;99.90;;;;;;5035667;28;20081;-51
2022/10/02 04:42:57;;;;;;;2.20;1.08;;;11.10;99.90;;;;;;5081501;28;20132;-52
2022/10/02 04:46:06;;;;;;;1.35;1.00;;;11.10;99.90;;;;;;5074260;28;20076;-48
2022/10/02 04:48:42;;;;;;;1.10;0.80;;;11.10;99.90;;;;;;5089856;28;20102;-51
2022/10/02 04:51:30;;;;;;;1.95;0.82;;;11.10;99.90;;;;;;5090265;28;20550;-49
2022/10/02 04:54:06;;;;;;;1.08;0.80;;;11.10;99.90;;;;;;5071834;28;20102;-48
2022/10/02 04:56:48;;;;;;;1.83;0.88;;;11.00;99.90;;;;;;5090779;28;20036;-47
2022/10/02 05:00:06;;;;;;;2.05;0.73;;;11.00;99.90;;;;;;5089882;28;20048;-52
2022/10/02 05:02:59;;;;;;;1.35;0.80;;;11.00;99.90;;;;;;5037137;28;20039;-49
2022/10/02 05:05:44;;;;;;;1.02;0.80;;;11.10;99.90;;;;;;5061297;28;20083;-49
2022/10/02 05:08:41;;;;;;;1.20;0.77;;;11.20;99.90;;;;;;5078070;28;20087;-48
2022/10/02 05:11:26;;;;;;;2.80;1.10;;;11.10;99.90;;;;;;5090634;28;20044;-49
2022/10/02 05:14:14;;;;;;;2.47;1.27;;;11.10;99.90;;;;;;5089663;28;20115;-51
2022/10/02 05:17:06;;;;;;;1.60;1.30;;;11.10;99.90;;;;;;5078352;28;20448;-50
2022/10/02 05:19:56;;;;;;;1.17;0.75;;;11.10;99.90;;;;;;5061151;28;20087;-48
2022/10/02 05:22:44;;;;;;;14.45;6.63;;;11.10;99.90;;;;;;5077315;28;20571;-51
2022/10/02 05:25:50;;;;;;;9.48;4.70;;;11.10;99.90;;;;;;5061892;28;20551;-51
2022/10/02 05:28:38;;;;;;;31.75;14.38;;;11.10;99.90;;;;;;5091073;28;20471;-48
2022/10/02 05:31:27;;;;;;;23.50;10.95;;;11.00;99.90;;;;;;5085107;28;20080;-48
2022/10/02 05:34:09;;;;;;;4.82;2.30;;;11.00;99.90;;;;;;5080151;28;20064;-50
2022/10/02 05:36:51;;;;;;;1.83;1.48;;;11.00;99.90;;;;;;5073829;28;20551;-50
2022/10/02 05:39:29;;;;;;;5.38;1.58;;;11.00;99.90;;;;;;5066646;28;20098;-51
2022/10/02 05:42:25;;;;;;;2.53;1.20;;;10.90;99.90;;;;;;5094006;28;20098;-50
2022/10/02 05:45:00;;;;;;;1.42;1.20;;;10.90;99.90;;;;;;5086030;28;20075;-48
2022/10/02 05:47:36;;;;;;;2.17;1.50;;;11.00;99.90;;;;;;5093766;28;20102;-48
2022/10/02 05:50:15;;;;;;;2.67;1.35;;;10.80;99.90;;;;;;5093177;28;20043;-51
2022/10/02 05:52:59;;;;;;;5.80;0.95;;;11.00;99.90;;;;;;5087747;28;20596;-48
2022/10/02 05:55:40;;;;;;;2.90;1.85;;;11.00;99.90;;;;;;5091937;28;20064;-51
2022/10/02 05:58:12;;;;;;;3.08;1.58;;;10.90;99.90;;;;;;5093689;28;20445;-47
2022/10/02 06:00:44;;;;;;;4.18;1.70;;;11.00;99.90;;;;;;5088595;28;20091;-49
2022/10/02 06:03:39;;;;;;;2.85;1.95;;;11.00;99.90;;;;;;5075849;28;20127;-51
2022/10/02 06:06:10;;;;;;;2.67;2.30;;;11.00;99.90;;;;;;5092190;28;20098;-48
2022/10/02 06:08:47;;;;;;;5.18;1.60;;;11.00;99.90;;;;;;5082486;28;20404;-49
2022/10/02 06:11:22;;;;;;;2.67;1.97;;;11.00;99.90;;;;;;5092493;28;20075;-52
2022/10/02 06:13:54;;;;;;;4.85;2.20;;;11.00;99.90;;;;;;5093196;28;20055;-51
2022/10/02 06:16:24;;;;;;;1.92;1.45;;;11.10;99.90;;;;;;5067019;28;20072;-49
2022/10/02 06:19:01;;;;;;;4.93;2.00;;;11.00;99.90;;;;;;5052933;28;20099;-47
2022/10/02 06:21:51;;;;;;;3.72;1.98;;;11.00;99.90;;;;;;5052130;28;20405;-50
2022/10/02 06:24:29;;;;;;;5.28;1.95;;;11.00;99.90;;;;;;5054987;28;20037;-50
2022/10/02 06:26:59;;;;;;;;;;;11.10;99.90;;;;;;5084029;28;20048;-50
2022/10/02 06:29:28;;;;;;;4.00;2.10;;;11.10;99.90;;;;;;5092929;28;19966;-51
2022/10/02 06:32:17;;;;;;;3.30;2.20;;;11.10;99.90;;;;;;5087039;28;20149;-50
2022/10/02 06:34:44;;;;;;;4.40;2.50;;;11.10;99.90;;;;;;5091964;28;20090;-50
2022/10/02 06:37:23;;;;;;;4.40;2.20;;;11.20;99.90;;;;;;5070991;28;20037;-51
2022/10/02 06:40:01;;;;;;;7.43;3.17;;;11.20;99.90;;;;;;5066122;28;20533;-48
2022/10/02 06:43:12;;;;;;;2.60;1.60;;;11.20;99.90;;;;;;5068874;28;20149;-47
2022/10/02 06:45:44;;;;;;;8.48;2.40;;;11.20;99.90;;;;;;5066106;28;20068;-49
2022/10/02 06:48:29;;;;;;;2.75;2.00;;;11.20;99.90;;;;;;5089770;28;20496;-48
2022/10/02 06:51:19;;;;;;;8.70;5.60;;;11.10;99.90;;;;;;5081780;28;20052;-51
2022/10/02 06:54:19;;;;;;;8.57;5.40;;;11.20;99.90;;;;;;5072001;28;20099;-47
2022/10/02 06:57:14;;;;;;;7.40;5.15;;;11.10;99.90;;;;;;5083124;28;20115;-49
2022/10/02 06:59:59;;;;;;;6.72;3.97;;;11.00;99.90;;;;;;5091839;28;20059;-49
2022/10/02 07:02:52;;;;;;;10.52;4.18;;;11.00;99.90;;;;;;5083180;28;20131;-49
2022/10/02 07:06:08;;;;;;;7.40;4.95;;;11.10;99.90;;;;;;5069776;28;20048;-51
2022/10/02 07:08:42;;;;;;;6.97;4.70;;;11.10;99.90;;;;;;5035137;28;20107;-48
2022/10/02 07:11:15;;;;;;;6.15;3.88;;;11.20;99.90;;;;;;5055389;28;20049;-48
2022/10/02 07:13:52;;;;;;;5.75;3.60;;;11.20;99.90;;;;;;5090464;28;20138;-48
2022/10/02 07:16:26;;;;;;;4.40;3.85;;;11.20;99.90;;;;;;5091978;28;20067;-51
2022/10/02 07:19:32;;;;;;;4.28;3.05;;;11.20;99.90;;;;;;5092336;28;20083;-48
2022/10/02 07:22:25;;;;;;;5.32;2.70;;;11.10;99.90;;;;;;5087055;28;20086;-48
2022/10/02 07:25:35;;;;;;;4.13;2.70;;;11.10;99.90;;;;;;5091323;28;20043;-49
2022/10/02 07:28:23;;;;;;;8.07;3.30;;;11.20;99.90;;;;;;5067182;28;20502;-51
2022/10/02 07:31:17;;;;;;;8.10;3.60;;;11.30;99.90;;;;;;5080477;28;20044;-48
2022/10/02 07:34:06;;;;;;;10.80;6.45;;;11.30;99.90;;;;;;5091238;28;20808;-48
2022/10/02 07:37:13;;;;;;;15.23;7.63;;;11.40;99.90;;;;;;5078568;28;20389;-51
2022/10/02 07:39:58;;;;;;;9.75;5.57;;;11.50;99.90;;;;;;5047494;28;20094;-47
2022/10/02 07:42:53;;;;;;;7.50;4.43;;;11.60;99.90;;;;;;5081008;28;20041;-51
2022/10/02 07:45:22;;;;;;;7.82;3.75;;;11.60;99.90;;;;;;5082647;28;20068;-51
2022/10/02 07:48:08;;;;;;;7.22;4.78;;;11.70;99.90;;;;;;5090263;28;20058;-50
2022/10/02 07:50:38;;;;;;;8.48;6.13;;;11.70;99.90;;;;;;5091560;28;20044;-50
2022/10/02 07:53:44;;;;;;;11.68;6.47;;;11.70;99.90;;;;;;5071998;28;20428;-49
2022/10/02 07:56:18;;;;;;;12.40;6.85;;;11.70;99.90;;;;;;5088080;28;20063;-48
2022/10/02 07:59:03;;;;;;;10.05;5.57;;;11.90;99.90;;;;;;5091381;28;20044;-48
2022/10/02 08:01:35;;;;;;;4.57;3.20;;;11.90;99.90;;;;;;5073774;28;20145;-48
2022/10/02 08:04:04;;;;;;;7.57;4.25;;;11.90;99.90;;;;;;5089328;28;20101;-48
2022/10/02 08:06:32;;;;;;;5.20;3.28;;;12.00;99.90;;;;;;5089224;28;20044;-48
2022/10/02 08:09:17;;;;;;;4.38;2.60;;;12.00;99.90;;;;;;5080359;28;20119;-47
2022/10/02 08:15:37;;;;;;;3.40;2.55;;;12.10;99.90;;;;;;5087231;28;20052;-45
2022/10/02 08:18:12;;;;;;;2.80;2.28;;;12.20;99.90;;;;;;5089413;28;20082;-47
2022/10/02 08:20:59;;;;;;;2.10;1.80;;;12.40;99.90;;;;;;5099269;28;20493;-46
2022/10/02 08:23:58;;;;;;;36.72;14.95;;;12.60;99.90;;;;;;5088058;28;20561;-46
2022/10/02 08:26:41;;;;;;;14.23;6.95;;;12.50;99.90;;;;;;5089945;28;20524;-46
2022/10/02 08:29:40;;;;;;;10.15;5.13;;;12.50;99.90;;;;;;5088783;28;20047;-46
2022/10/02 08:32:12;;;;;;;2.85;1.70;;;12.50;99.90;;;;;;5086497;28;20075;-46
2022/10/02 08:34:40;;;;;;;2.72;2.10;;;12.40;99.90;;;;;;5088425;28;20450;-46
2022/10/02 08:37:24;;;;;;;4.72;2.00;;;12.40;99.90;;;;;;5086834;28;20098;-46
2022/10/02 08:40:08;;;;;;;2.55;1.77;;;12.30;99.90;;;;;;5085342;28;20064;-47
2022/10/02 08:43:05;;;;;;;3.70;2.25;;;12.20;99.90;;;;;;5082793;28;20040;-46
2022/10/02 08:46:02;;;;;;;3.47;2.42;;;12.20;99.90;;;;;;5089701;28;20078;-46
2022/10/02 08:48:57;;;;;;;3.35;2.88;;;12.20;99.90;;;;;;5084871;28;20039;-46
2022/10/02 08:51:46;;;;;;;5.20;3.50;;;12.10;99.90;;;;;;5089535;28;20052;-46
2022/10/02 08:54:18;;;;;;;7.70;3.55;;;12.00;99.90;;;;;;5089850;28;20405;-46
2022/10/02 08:57:33;;;;;;;6.13;2.83;;;12.00;99.90;;;;;;5091013;28;20060;-46
2022/10/02 09:00:08;;;;;;;5.25;2.80;;;12.10;99.90;;;;;;5005530;28;20073;-46
2022/10/02 09:03:09;;;;;;;4.20;2.55;;;12.10;99.90;;;;;;5086865;28;20455;-46
2022/10/02 09:06:02;;;;;;;4.72;3.00;;;12.10;99.90;;;;;;5092504;28;20098;-46
2022/10/02 09:08:54;;;;;;;5.53;3.00;;;12.20;99.90;;;;;;5090754;28;20036;-46
2022/10/02 09:11:40;;;;;;;4.32;2.30;;;12.20;99.90;;;;;;5094877;28;20040;-47
2022/10/02 09:14:19;;;;;;;2.55;1.33;;;12.30;99.90;;;;;;5088246;28;20187;-46
2022/10/02 09:16:55;;;;;;;3.03;1.50;;;12.40;99.90;;;;;;5091500;28;20539;-46
2022/10/02 09:19:43;;;;;;;5.18;1.90;;;12.40;99.90;;;;;;5087474;28;20083;-46
2022/10/02 09:22:23;;;;;;;2.05;1.58;;;12.40;99.90;;;;;;5085247;28;20090;-46
2022/10/02 09:24:58;;;;;;;3.65;2.20;;;12.40;99.90;;;;;;5107464;28;20071;-46
2022/10/02 09:28:03;;;;;;;5.25;2.40;;;12.40;99.90;;;;;;5109606;28;20313;-47
2022/10/02 09:31:08;;;;;;;4.30;1.55;;;12.50;99.90;;;;;;5093896;28;20063;-47
2022/10/02 09:34:02;;;;;;;5.68;2.50;;;12.50;99.90;;;;;;5092498;28;20051;-46
2022/10/02 09:37:15;;;;;;;4.28;2.65;;;12.50;99.90;;;;;;5092437;28;22062;-47
2022/10/02 09:40:22;;;;;;;3.97;1.70;;;12.50;99.90;;;;;;5086731;28;20044;-46
2022/10/02 09:43:08;;;;;;;4.55;2.03;;;12.60;99.90;;;;;;5086174;28;20078;-46
2022/10/02 09:46:05;;;;;;;3.42;1.92;;;12.70;99.90;;;;;;5092156;28;20052;-46
2022/10/02 09:48:59;;;;;;;5.60;2.70;;;12.90;99.90;;;;;;5093872;28;20044;-46
2022/10/02 09:51:48;;;;;;;13.68;6.35;;;13.10;99.90;;;;;;5090070;28;20071;-46
2022/10/02 09:54:43;;;;;;;8.32;3.72;;;13.10;99.90;;;;;;5092880;28;20508;-46
2022/10/02 09:57:30;;;;;;;1.90;1.30;;;13.20;99.90;;;;;;5092547;28;20048;-46
2022/10/02 10:00:24;;;;;;;3.60;1.80;;;13.10;99.90;;;;;;5085273;28;20086;-46
2022/10/02 10:03:12;;;;;;;8.88;2.83;;;13.00;99.90;;;;;;5087850;28;20048;-46
2022/10/02 10:06:16;;;;;;;18.50;7.60;;;13.00;99.90;;;;;;5091881;28;20455;-46
2022/10/02 10:09:14;;;;;;;13.68;8.63;;;13.00;99.90;;;;;;5088958;28;20114;-46
2022/10/02 10:12:01;;;;;;;11.00;6.60;;;12.90;99.90;;;;;;5085894;28;20040;-46
2022/10/02 10:14:40;;;;;;;23.80;10.68;;;13.00;99.90;;;;;;5092532;28;20127;-47
2022/10/02 10:17:44;;;;;;;4.97;3.25;;;13.00;99.90;;;;;;5093284;28;20658;-46
2022/10/02 10:20:26;;;;;;;9.60;4.25;;;12.90;99.90;;;;;;5090138;28;20040;-46
2022/10/02 10:23:14;;;;;;;7.65;3.30;;;12.80;99.90;;;;;;5092758;28;20520;-47
2022/10/02 10:26:19;;;;;;;8.30;3.58;;;12.90;99.90;;;;;;5092661;28;20134;-46
2022/10/02 10:28:58;;;;;;;14.13;5.15;;;12.80;99.90;;;;;;5087813;28;20551;-46
2022/10/02 10:31:52;;;;;;;2.00;1.75;;;12.80;99.90;;;;;;5092922;28;20055;-46
2022/10/02 10:34:50;;;;;;;6.60;3.03;;;12.90;99.90;;;;;;5090411;28;20055;-46
2022/10/02 10:40:59;;;;;;;11.43;3.65;;;12.90;99.90;;;;;;5087666;28;20041;-46
2022/10/02 10:43:26;;;;;;;3.97;2.22;;;12.80;99.90;;;;;;5091764;28;20109;-46
2022/10/02 10:46:05;;;;;;;5.40;2.85;;;12.80;99.90;;;;;;5092438;28;20040;-46
2022/10/02 10:48:50;;;;;;;5.07;2.35;;;12.90;99.90;;;;;;5092246;28;20119;-46
2022/10/02 10:51:44;;;;;;;6.40;3.30;;;12.90;99.90;;;;;;5086246;28;20413;-45
2022/10/02 10:54:47;;;;;;;5.80;2.28;;;13.00;99.90;;;;;;5095102;28;20118;-46
2022/10/02 10:57:37;;;;;;;6.78;2.58;;;13.00;99.90;;;;;;5096913;28;20635;-46
2022/10/02 11:00:16;;;;;;;4.90;1.65;;;13.00;99.90;;;;;;5090538;28;20098;-46
2022/10/02 11:02:58;;;;;;;4.32;1.90;;;13.10;99.90;;;;;;5090945;28;20092;-46
2022/10/02 11:05:43;;;;;;;3.80;1.95;;;13.30;99.90;;;;;;5091276;28;20082;-46
2022/10/02 11:08:17;;;;;;;5.28;1.80;;;13.30;99.90;;;;;;5089836;28;20063;-46
2022/10/02 11:10:43;;;;;;;4.45;1.70;;;13.30;99.90;;;;;;5089981;28;20067;-46
2022/10/02 11:13:42;;;;;;;4.95;3.30;;;13.20;99.90;;;;;;5092041;28;20071;-46
2022/10/02 11:16:11;;;;;;;2.65;1.20;;;13.40;99.90;;;;;;5087647;28;20032;-46
2022/10/02 11:18:43;;;;;;;7.88;3.65;;;13.80;99.90;;;;;;5091448;28;20036;-46
2022/10/02 11:21:16;;;;;;;9.88;4.95;;;14.10;99.90;;;;;;5095824;28;20513;-47
2022/10/02 11:23:48;;;;;;;13.95;7.97;;;14.10;99.90;;;;;;5101389;28;20043;-46
2022/10/02 11:27:02;;;;;;;14.13;7.38;;;14.10;99.90;;;;;;5091538;28;20098;-46
2022/10/02 11:29:54;;;;;;;6.60;3.88;;;14.20;99.90;;;;;;5091690;28;20052;-46
2022/10/02 11:33:00;;;;;;;7.22;5.25;;;14.40;99.90;;;;;;5089200;28;20040;-46
2022/10/02 11:35:54;;;;;;;4.35;2.10;;;14.40;99.90;;;;;;5091333;28;20094;-46
2022/10/02 11:38:49;;;;;;;2.22;1.15;;;14.40;99.90;;;;;;5090690;28;20128;-46
2022/10/02 11:41:30;;;;;;;2.55;1.52;;;14.50;99.90;;;;;;5089823;28;20570;-46
2022/10/02 11:44:09;;;;;;;3.20;0.85;;;14.80;99.90;;;;;;5091168;28;20130;-47
2022/10/02 11:47:16;;;;;;;4.90;2.40;;;14.80;99.90;;;;;;5092575;28;20072;-46
2022/10/02 11:50:20;;;;;;;3.25;1.98;;;14.70;99.90;;;;;;5095517;28;20123;-46
2022/10/02 11:52:58;;;;;;;1.95;1.10;;;14.80;99.90;;;;;;5090177;28;20051;-47
2022/10/02 11:55:31;;;;;;;5.82;2.00;;;15.10;99.90;;;;;;5090687;28;20040;-46
2022/10/02 11:58:17;;;;;;;5.78;0.85;;;15.20;99.90;;;;;;5086728;28;20450;-47
2022/10/02 12:01:07;;;;;;;1.15;0.77;;;15.50;99.90;;;;;;5079983;28;20534;-47
2022/10/02 12:03:56;;;;;;;2.08;1.20;;;15.80;99.90;;;;;;5090591;28;20044;-47
2022/10/02 12:06:34;;;;;;;5.05;2.05;;;16.10;99.90;;;;;;5090671;28;20451;-46
2022/10/02 12:09:19;;;;;;;2.83;1.67;;;16.50;99.90;;;;;;5087019;28;20492;-47
2022/10/02 12:11:46;;;;;;;3.05;1.23;;;16.80;99.90;;;;;;5091381;28;20117;-47
2022/10/02 12:14:41;;;;;;;4.32;1.65;;;16.80;99.90;;;;;;5090640;28;20070;-46
2022/10/02 12:17:11;;;;;;;5.03;2.45;;;16.50;99.90;;;;;;5089086;28;20044;-46
2022/10/02 12:29:00;;;;;;;1.45;1.35;;;15.90;99.90;;;;;;5077342;28;20048;-46
2022/10/02 12:31:54;;;;;;;2.17;1.98;;;15.60;99.90;;;;;;5090478;28;20431;-47
2022/10/02 12:34:47;;;;;;;3.10;1.40;;;15.40;99.90;;;;;;5092477;28;20044;-46
2022/10/02 12:37:35;;;;;;;3.38;1.45;;;15.20;99.90;;;;;;5091372;28;20048;-46
2022/10/02 12:40:08;;;;;;;3.03;1.13;;;15.00;99.90;;;;;;5094281;28;20050;-46
2022/10/02 12:42:54;;;;;;;1.90;1.10;;;14.70;99.90;;;;;;5092202;28;20504;-46
2022/10/02 12:45:43;;;;;;;2.95;2.65;;;14.60;99.90;;;;;;5099937;28;20040;-45
2022/10/02 12:48:17;;;;;;;4.65;2.88;;;14.70;99.90;;;;;;5105045;28;20059;-46
2022/10/02 12:51:09;;;;;;;6.20;1.50;;;14.90;99.90;;;;;;5094666;28;20036;-46
2022/10/02 12:54:16;;;;;;;1.85;1.40;;;15.00;99.90;;;;;;5090912;28;20482;-46
2022/10/02 12:57:06;;;;;;;2.33;1.10;;;14.90;99.90;;;;;;5100000;28;20552;-46
2022/10/02 12:59:54;;;;;;;2.42;1.27;;;14.80;99.90;;;;;;5094942;28;20056;-47
2022/10/02 13:02:35;;;;;;;1.52;1.17;;;14.50;99.90;;;;;;5093376;28;20492;-46
2022/10/02 13:05:50;;;;;;;1.73;1.08;;;14.40;99.90;;;;;;5092109;28;20532;-46
2022/10/02 13:08:17;;;;;;;2.25;1.33;;;14.60;99.90;;;;;;5092318;28;20072;-46
2022/10/02 13:11:01;;;;;;;4.97;1.23;;;14.60;99.90;;;;;;5087534;28;20068;-46
2022/10/02 13:13:50;;;;;;;3.08;2.05;;;14.60;99.90;;;;;;5093157;28;20067;-47
2022/10/02 13:16:29;;;;;;;;;;;14.60;99.90;;;;;;5094211;28;20403;-46
2022/10/02 13:19:37;;;;;;;1.73;1.52;;;14.50;99.90;;;;;;5089614;28;19923;-46
2022/10/02 13:22:32;;;;;;;4.43;2.60;;;14.40;99.90;;;;;;5083587;28;20088;-46
2022/10/02 13:25:17;;;;;;;2.15;1.50;;;14.20;99.90;;;;;;5092651;28;20048;-46
2022/10/02 13:27:58;;;;;;;3.63;1.52;;;13.90;99.90;;;;;;5087198;28;20401;-48
2022/10/02 13:30:32;;;;;;;3.33;2.03;;;13.80;99.90;;;;;;5093458;28;20115;-46
2022/10/02 13:33:27;;;;;;;3.22;1.80;;;13.70;99.90;;;;;;5091835;28;20044;-45
2022/10/02 13:36:35;;;;;;;12.25;2.63;;;13.60;99.90;;;;;;5089194;28;20044;-46
2022/10/02 13:39:29;;;;;;;23.88;10.63;;;13.50;99.90;;;;;;5070110;28;20071;-46
2022/10/02 13:42:01;;;;;;;30.30;15.77;;;13.50;99.90;;;;;;5092826;28;20106;-46
2022/10/02 13:44:52;;;;;;;9.27;4.65;;;13.40;99.90;;;;;;5093805;28;20068;-46
2022/10/02 13:47:38;;;;;;;4.20;2.30;;;13.40;99.90;;;;;;5091655;28;20054;-46
2022/10/02 13:50:23;;;;;;;3.28;1.90;;;13.40;99.90;;;;;;5092915;28;20040;-46
2022/10/02 13:52:58;;;;;;;3.38;1.85;;;13.50;99.90;;;;;;5093009;28;20040;-46
2022/10/02 13:55:29;;;;;;;3.00;2.15;;;13.60;99.90;;;;;;5093155;28;20102;-46
2022/10/02 13:58:17;;;;;;;2.92;1.20;;;13.60;99.90;;;;;;5093866;28;20503;-46
2022/10/02 14:01:04;;;;;;;4.13;1.55;;;13.60;99.90;;;;;;5092451;28;20051;-46
2022/10/02 14:04:00;;;;;;;2.70;1.90;;;13.70;99.90;;;;;;5085103;28;20046;-46
2022/10/02 14:07:13;;;;;;;3.58;2.20;;;13.60;99.90;;;;;;5092585;28;20044;-46
2022/10/02 14:09:43;;;;;;;3.72;1.70;;;13.60;99.90;;;;;;5064435;28;20126;-47
2022/10/02 14:12:31;;;;;;;2.95;1.85;;;13.50;99.90;;;;;;5115241;22;20101;-47
2022/10/02 14:15:01;;;;;;;;;;;13.50;99.90;;;;;;5112025;28;20088;-45
2022/10/02 14:18:02;;;;;;;12.82;7.55;;;13.40;99.90;;;;;;5113769;28;19919;-45
2022/10/02 14:20:58;;;;;;;9.13;4.30;;;13.30;99.90;;;;;;5092934;28;20028;-45
2022/10/02 14:24:14;;;;;;;6.82;4.78;;;13.20;99.90;;;;;;5072598;28;20048;-46
2022/10/02 14:26:59;;;;;;;7.80;4.10;;;13.30;99.90;;;;;;5077482;28;20071;-45
2022/10/02 14:29:44;;;;;;;3.90;2.75;;;13.30;99.90;;;;;;5084801;28;20048;-48
2022/10/02 14:32:34;;;;;;;6.63;4.43;;;13.40;99.90;;;;;;5091958;28;20105;-45
2022/10/02 14:35:19;;;;;;;8.20;4.82;;;13.40;99.90;;;;;;5074671;28;20562;-45